sensor_id;sensor_type;location;lat;lon;timestamp;temperature;humidity
13344;DHT22;6741;48.964;9.406;2022-12-29T00:01:34;8.30;99.90
13344;DHT22;6741;48.964;9.406;2022-12-29T00:04:01;8.40;99.90
13344;DHT22;6741;48.964;9.406;2022-12-29T00:06:28;8.50;99.90
13344;DHT22;6741;48.964;9.406;2022-12-29T00:08:55;8.50;99.90
13344;DHT22;6741;48.964;9.406;2022-12-29T00:11:23;8.60;99.90
13344;DHT22;6741;48.964;9.406;2022-12-29T00:13:51;8.60;99.90
13344;DHT22;6741;48.964;9.406;2022-12-29T00:16:37;8.70;99.90
13344;DHT22;6741;48.964;9.406;2022-12-29T00:19:05;8.70;99.90
13344;DHT22;6741;48.964;9.406;2022-12-29T00:21:31;8.70;99.90
13344;DHT22;6741;48.964;9.406;2022-12-29T00:24:18;8.80;99.90
13344;DHT22;6741;48.964;9.406;2022-12-29T00:27:11;8.90;99.90
13344;DHT22;6741;48.964;9.406;2022-12-29T00:29:56;8.90;99.90
13344;DHT22;6741;48.964;9.406;2022-12-29T00:32:42;9.00;99.90
13344;DHT22;6741;48.964;9.406;2022-12-29T00:35:29;9.10;99.90
13344;DHT22;6741;48.964;9.406;2022-12-29T00:37:59;9.20;99.90
13344;DHT22;6741;48.964;9.406;2022-12-29T00:40:45;9.30;99.90
13344;DHT22;6741;48.964;9.406;2022-12-29T00:43:29;9.50;99.90
13344;DHT22;6741;48.964;9.406;2022-12-29T00:46:14;9.70;99.90
13344;DHT22;6741;48.964;9.406;2022-12-29T00:48:42;9.70;99.90
13344;DHT22;6741;48.964;9.406;2022-12-29T00:51:26;9.60;99.90
13344;DHT22;6741;48.964;9.406;2022-12-29T00:53:53;9.70;99.90
13344;DHT22;6741;48.964;9.406;2022-12-29T00:56:20;9.80;99.90
13344;DHT22;6741;48.964;9.406;2022-12-29T00:58:47;9.80;99.90
13344;DHT22;6741;48.964;9.406;2022-12-29T01:01:14;9.90;99.90
13344;DHT22;6741;48.964;9.406;2022-12-29T01:03:42;10.00;99.90
13344;DHT22;6741;48.964;9.406;2022-12-29T01:06:11;10.00;99.90
13344;DHT22;6741;48.964;9.406;2022-12-29T01:08:38;10.00;99.90
13344;DHT22;6741;48.964;9.406;2022-12-29T01:11:06;10.00;99.90
13344;DHT22;6741;48.964;9.406;2022-12-29T01:13:33;10.00;99.90
13344;DHT22;6741;48.964;9.406;2022-12-29T01:16:01;10.20;99.90
13344;DHT22;6741;48.964;9.406;2022-12-29T01:18:28;10.10;99.90
13344;DHT22;6741;48.964;9.406;2022-12-29T01:21:00;10.10;99.90
13344;DHT22;6741;48.964;9.406;2022-12-29T01:23:27;10.10;99.90
13344;DHT22;6741;48.964;9.406;2022-12-29T01:25:54;10.20;99.90
13344;DHT22;6741;48.964;9.406;2022-12-29T01:28:22;10.10;99.90
13344;DHT22;6741;48.964;9.406;2022-12-29T01:30:49;10.20;99.90
13344;DHT22;6741;48.964;9.406;2022-12-29T01:33:16;10.10;99.90
13344;DHT22;6741;48.964;9.406;2022-12-29T01:35:43;10.20;99.90
13344;DHT22;6741;48.964;9.406;2022-12-29T01:38:11;10.20;99.90
13344;DHT22;6741;48.964;9.406;2022-12-29T01:40:45;10.20;99.90
13344;DHT22;6741;48.964;9.406;2022-12-29T01:43:13;10.30;99.90
13344;DHT22;6741;48.964;9.406;2022-12-29T01:45:43;10.30;99.90
13344;DHT22;6741;48.964;9.406;2022-12-29T01:48:12;10.30;99.90
13344;DHT22;6741;48.964;9.406;2022-12-29T01:50:43;10.30;99.90
13344;DHT22;6741;48.964;9.406;2022-12-29T01:53:16;10.30;99.90
13344;DHT22;6741;48.964;9.406;2022-12-29T01:55:48;10.20;99.90
13344;DHT22;6741;48.964;9.406;2022-12-29T01:58:18;10.20;99.90
13344;DHT22;6741;48.964;9.406;2022-12-29T02:00:46;10.20;99.90
13344;DHT22;6741;48.964;9.406;2022-12-29T02:03:13;10.20;99.90
13344;DHT22;6741;48.964;9.406;2022-12-29T02:05:43;10.10;99.90
13344;DHT22;6741;48.964;9.406;2022-12-29T02:08:14;10.10;99.90
13344;DHT22;6741;48.964;9.406;2022-12-29T02:10:42;10.10;99.90
13344;DHT22;6741;48.964;9.406;2022-12-29T02:13:10;10.10;99.90
13344;DHT22;6741;48.964;9.406;2022-12-29T02:15:48;10.10;99.90
13344;DHT22;6741;48.964;9.406;2022-12-29T02:18:27;10.20;99.90
13344;DHT22;6741;48.964;9.406;2022-12-29T02:21:35;10.10;99.90
13344;DHT22;6741;48.964;9.406;2022-12-29T02:27:29;10.10;99.90
13344;DHT22;6741;48.964;9.406;2022-12-29T02:30:26;10.00;99.90
13344;DHT22;6741;48.964;9.406;2022-12-29T02:32:58;10.00;99.90
13344;DHT22;6741;48.964;9.406;2022-12-29T02:35:35;10.10;99.90
13344;DHT22;6741;48.964;9.406;2022-12-29T02:38:12;10.10;99.90
13344;DHT22;6741;48.964;9.406;2022-12-29T02:40:46;10.10;99.90
13344;DHT22;6741;48.964;9.406;2022-12-29T02:43:22;10.10;99.90
13344;DHT22;6741;48.964;9.406;2022-12-29T02:45:54;10.20;99.90
13344;DHT22;6741;48.964;9.406;2022-12-29T02:48:27;10.20;99.90
13344;DHT22;6741;48.964;9.406;2022-12-29T02:50:59;10.30;99.90
13344;DHT22;6741;48.964;9.406;2022-12-29T02:53:28;10.30;99.90
13344;DHT22;6741;48.964;9.406;2022-12-29T02:56:13;10.30;99.90
13344;DHT22;6741;48.964;9.406;2022-12-29T02:58:40;10.30;99.90
13344;DHT22;6741;48.964;9.406;2022-12-29T03:01:21;10.30;99.90
13344;DHT22;6741;48.964;9.406;2022-12-29T03:04:02;10.30;99.90
13344;DHT22;6741;48.964;9.406;2022-12-29T03:06:37;10.30;99.90
13344;DHT22;6741;48.964;9.406;2022-12-29T03:09:14;10.30;99.90
13344;DHT22;6741;48.964;9.406;2022-12-29T03:11:48;10.30;99.90
13344;DHT22;6741;48.964;9.406;2022-12-29T03:14:44;10.30;99.90
13344;DHT22;6741;48.964;9.406;2022-12-29T03:17:48;10.30;99.90
13344;DHT22;6741;48.964;9.406;2022-12-29T03:20:20;10.30;99.90
13344;DHT22;6741;48.964;9.406;2022-12-29T03:22:51;10.40;99.90
13344;DHT22;6741;48.964;9.406;2022-12-29T03:25:23;10.40;99.90
13344;DHT22;6741;48.964;9.406;2022-12-29T03:27:55;10.40;99.90
13344;DHT22;6741;48.964;9.406;2022-12-29T03:30:22;10.40;99.90
13344;DHT22;6741;48.964;9.406;2022-12-29T03:32:55;10.30;99.90
13344;DHT22;6741;48.964;9.406;2022-12-29T03:35:25;10.30;99.90
13344;DHT22;6741;48.964;9.406;2022-12-29T03:37:58;10.30;99.90
13344;DHT22;6741;48.964;9.406;2022-12-29T03:40:27;10.30;99.90
13344;DHT22;6741;48.964;9.406;2022-12-29T03:42:56;10.30;99.90
13344;DHT22;6741;48.964;9.406;2022-12-29T03:45:23;10.20;99.90
13344;DHT22;6741;48.964;9.406;2022-12-29T03:47:53;10.30;99.90
13344;DHT22;6741;48.964;9.406;2022-12-29T03:50:20;10.30;99.90
13344;DHT22;6741;48.964;9.406;2022-12-29T03:52:46;10.30;99.90
13344;DHT22;6741;48.964;9.406;2022-12-29T03:55:14;10.30;99.90
13344;DHT22;6741;48.964;9.406;2022-12-29T03:57:40;10.20;99.90
13344;DHT22;6741;48.964;9.406;2022-12-29T04:00:08;10.20;99.90
13344;DHT22;6741;48.964;9.406;2022-12-29T04:02:36;10.10;99.90
13344;DHT22;6741;48.964;9.406;2022-12-29T04:05:06;10.00;99.90
13344;DHT22;6741;48.964;9.406;2022-12-29T04:07:33;10.00;99.90
13344;DHT22;6741;48.964;9.406;2022-12-29T04:10:00;10.00;99.90
13344;DHT22;6741;48.964;9.406;2022-12-29T04:12:26;10.00;99.90
13344;DHT22;6741;48.964;9.406;2022-12-29T04:14:53;9.90;99.90
13344;DHT22;6741;48.964;9.406;2022-12-29T04:17:20;9.90;99.90
13344;DHT22;6741;48.964;9.406;2022-12-29T04:19:47;9.90;99.90
13344;DHT22;6741;48.964;9.406;2022-12-29T04:22:15;9.80;99.90
13344;DHT22;6741;48.964;9.406;2022-12-29T04:24:42;9.70;99.90
13344;DHT22;6741;48.964;9.406;2022-12-29T04:27:09;9.70;99.90
13344;DHT22;6741;48.964;9.406;2022-12-29T04:29:36;9.70;99.90
13344;DHT22;6741;48.964;9.406;2022-12-29T04:32:03;9.70;99.90
13344;DHT22;6741;48.964;9.406;2022-12-29T04:34:30;9.80;99.90
13344;DHT22;6741;48.964;9.406;2022-12-29T04:36:57;9.70;99.90
13344;DHT22;6741;48.964;9.406;2022-12-29T04:39:25;9.70;99.90
13344;DHT22;6741;48.964;9.406;2022-12-29T04:41:52;9.80;99.90
13344;DHT22;6741;48.964;9.406;2022-12-29T04:44:19;9.80;99.90
13344;DHT22;6741;48.964;9.406;2022-12-29T04:46:46;9.90;99.90
13344;DHT22;6741;48.964;9.406;2022-12-29T04:49:13;9.80;99.90
13344;DHT22;6741;48.964;9.406;2022-12-29T04:51:40;9.70;99.90
13344;DHT22;6741;48.964;9.406;2022-12-29T04:54:07;9.60;99.90
13344;DHT22;6741;48.964;9.406;2022-12-29T04:56:35;9.60;99.90
13344;DHT22;6741;48.964;9.406;2022-12-29T04:59:02;9.50;99.90
13344;DHT22;6741;48.964;9.406;2022-12-29T05:01:29;9.50;99.90
13344;DHT22;6741;48.964;9.406;2022-12-29T05:03:56;9.70;99.90
13344;DHT22;6741;48.964;9.406;2022-12-29T05:06:23;9.90;99.90
13344;DHT22;6741;48.964;9.406;2022-12-29T05:08:50;10.00;99.90
13344;DHT22;6741;48.964;9.406;2022-12-29T05:11:17;10.00;99.90
13344;DHT22;6741;48.964;9.406;2022-12-29T05:13:46;10.00;99.90
13344;DHT22;6741;48.964;9.406;2022-12-29T05:16:13;10.00;99.90
13344;DHT22;6741;48.964;9.406;2022-12-29T05:18:40;10.10;99.90
13344;DHT22;6741;48.964;9.406;2022-12-29T05:21:07;10.10;99.90
13344;DHT22;6741;48.964;9.406;2022-12-29T05:23:33;10.10;99.90
13344;DHT22;6741;48.964;9.406;2022-12-29T05:26:00;10.10;99.90
13344;DHT22;6741;48.964;9.406;2022-12-29T05:28:27;10.10;99.90
13344;DHT22;6741;48.964;9.406;2022-12-29T05:30:55;10.10;99.90
13344;DHT22;6741;48.964;9.406;2022-12-29T05:33:22;10.20;99.90
13344;DHT22;6741;48.964;9.406;2022-12-29T05:35:49;10.40;99.90
13344;DHT22;6741;48.964;9.406;2022-12-29T05:38:16;10.50;99.90
13344;DHT22;6741;48.964;9.406;2022-12-29T05:40:43;10.60;99.90
13344;DHT22;6741;48.964;9.406;2022-12-29T05:43:10;10.60;99.90
13344;DHT22;6741;48.964;9.406;2022-12-29T05:45:37;10.70;99.90
13344;DHT22;6741;48.964;9.406;2022-12-29T05:48:05;10.90;99.90
13344;DHT22;6741;48.964;9.406;2022-12-29T05:50:32;10.80;99.90
13344;DHT22;6741;48.964;9.406;2022-12-29T05:52:59;10.80;99.90
13344;DHT22;6741;48.964;9.406;2022-12-29T05:55:26;10.80;99.90
13344;DHT22;6741;48.964;9.406;2022-12-29T05:57:53;10.80;99.90
13344;DHT22;6741;48.964;9.406;2022-12-29T06:00:20;10.70;99.90
13344;DHT22;6741;48.964;9.406;2022-12-29T06:02:47;10.80;99.90
13344;DHT22;6741;48.964;9.406;2022-12-29T06:05:16;10.90;99.90
13344;DHT22;6741;48.964;9.406;2022-12-29T06:07:43;10.90;99.90
13344;DHT22;6741;48.964;9.406;2022-12-29T06:10:10;11.00;99.90
13344;DHT22;6741;48.964;9.406;2022-12-29T06:12:37;11.00;99.90
13344;DHT22;6741;48.964;9.406;2022-12-29T06:15:05;10.90;99.90
13344;DHT22;6741;48.964;9.406;2022-12-29T06:17:33;10.90;99.90
13344;DHT22;6741;48.964;9.406;2022-12-29T06:20:00;10.80;99.90
13344;DHT22;6741;48.964;9.406;2022-12-29T06:22:28;10.80;99.90
13344;DHT22;6741;48.964;9.406;2022-12-29T06:24:55;10.90;99.90
13344;DHT22;6741;48.964;9.406;2022-12-29T06:27:22;10.90;99.90
13344;DHT22;6741;48.964;9.406;2022-12-29T06:29:49;11.00;99.90
13344;DHT22;6741;48.964;9.406;2022-12-29T06:32:16;11.00;99.90
13344;DHT22;6741;48.964;9.406;2022-12-29T06:34:43;11.00;99.90
13344;DHT22;6741;48.964;9.406;2022-12-29T06:37:11;11.00;99.90
13344;DHT22;6741;48.964;9.406;2022-12-29T06:39:39;11.00;99.90
13344;DHT22;6741;48.964;9.406;2022-12-29T06:42:06;11.10;99.90
13344;DHT22;6741;48.964;9.406;2022-12-29T06:44:33;11.10;99.90
13344;DHT22;6741;48.964;9.406;2022-12-29T06:47:00;11.20;99.90
13344;DHT22;6741;48.964;9.406;2022-12-29T06:49:26;11.20;99.90
13344;DHT22;6741;48.964;9.406;2022-12-29T06:51:53;11.20;99.90
13344;DHT22;6741;48.964;9.406;2022-12-29T06:54:20;11.20;99.90
13344;DHT22;6741;48.964;9.406;2022-12-29T06:56:49;11.10;99.90
13344;DHT22;6741;48.964;9.406;2022-12-29T06:59:15;11.10;99.90
13344;DHT22;6741;48.964;9.406;2022-12-29T07:01:42;11.20;99.90
13344;DHT22;6741;48.964;9.406;2022-12-29T07:04:09;11.20;99.90
13344;DHT22;6741;48.964;9.406;2022-12-29T07:06:36;11.10;99.90
13344;DHT22;6741;48.964;9.406;2022-12-29T07:09:03;11.10;99.90
13344;DHT22;6741;48.964;9.406;2022-12-29T07:11:30;11.10;99.90
13344;DHT22;6741;48.964;9.406;2022-12-29T07:13:58;11.10;99.90
13344;DHT22;6741;48.964;9.406;2022-12-29T07:16:26;11.10;99.90
13344;DHT22;6741;48.964;9.406;2022-12-29T07:18:55;11.00;99.90
13344;DHT22;6741;48.964;9.406;2022-12-29T07:21:22;10.90;99.90
13344;DHT22;6741;48.964;9.406;2022-12-29T07:23:49;10.90;99.90
13344;DHT22;6741;48.964;9.406;2022-12-29T07:26:16;10.80;99.90
13344;DHT22;6741;48.964;9.406;2022-12-29T07:28:44;10.80;99.90
13344;DHT22;6741;48.964;9.406;2022-12-29T07:31:15;10.70;99.90
13344;DHT22;6741;48.964;9.406;2022-12-29T07:33:43;10.70;99.90
13344;DHT22;6741;48.964;9.406;2022-12-29T07:36:11;10.70;99.90
13344;DHT22;6741;48.964;9.406;2022-12-29T07:38:38;10.70;99.90
13344;DHT22;6741;48.964;9.406;2022-12-29T07:41:05;10.60;99.90
13344;DHT22;6741;48.964;9.406;2022-12-29T07:43:32;10.60;99.90
13344;DHT22;6741;48.964;9.406;2022-12-29T07:45:59;10.60;99.90
13344;DHT22;6741;48.964;9.406;2022-12-29T07:48:28;10.60;99.90
13344;DHT22;6741;48.964;9.406;2022-12-29T07:50:55;10.60;99.90
13344;DHT22;6741;48.964;9.406;2022-12-29T07:53:22;10.60;99.90
13344;DHT22;6741;48.964;9.406;2022-12-29T07:55:48;10.60;99.90
13344;DHT22;6741;48.964;9.406;2022-12-29T07:58:15;10.60;99.90
13344;DHT22;6741;48.964;9.406;2022-12-29T08:00:42;10.60;99.90
13344;DHT22;6741;48.964;9.406;2022-12-29T08:03:09;10.70;99.90
13344;DHT22;6741;48.964;9.406;2022-12-29T08:05:37;10.70;99.90
13344;DHT22;6741;48.964;9.406;2022-12-29T08:08:04;10.70;99.90
13344;DHT22;6741;48.964;9.406;2022-12-29T08:10:31;10.70;99.90
13344;DHT22;6741;48.964;9.406;2022-12-29T08:12:58;10.70;99.90
13344;DHT22;6741;48.964;9.406;2022-12-29T08:15:25;10.70;99.90
13344;DHT22;6741;48.964;9.406;2022-12-29T08:17:52;10.80;99.90
13344;DHT22;6741;48.964;9.406;2022-12-29T08:20:19;10.80;99.90
13344;DHT22;6741;48.964;9.406;2022-12-29T08:22:47;10.90;99.90
13344;DHT22;6741;48.964;9.406;2022-12-29T08:25:14;10.90;99.90
13344;DHT22;6741;48.964;9.406;2022-12-29T08:27:41;10.80;99.90
13344;DHT22;6741;48.964;9.406;2022-12-29T08:30:09;10.90;99.90
13344;DHT22;6741;48.964;9.406;2022-12-29T08:32:36;10.80;99.90
13344;DHT22;6741;48.964;9.406;2022-12-29T08:35:04;10.80;99.90
13344;DHT22;6741;48.964;9.406;2022-12-29T08:37:32;10.80;99.90
13344;DHT22;6741;48.964;9.406;2022-12-29T08:40:01;10.90;99.90
13344;DHT22;6741;48.964;9.406;2022-12-29T08:42:29;10.90;99.90
13344;DHT22;6741;48.964;9.406;2022-12-29T08:44:56;11.00;99.90
13344;DHT22;6741;48.964;9.406;2022-12-29T08:47:24;11.00;99.90
13344;DHT22;6741;48.964;9.406;2022-12-29T08:49:51;11.10;99.90
13344;DHT22;6741;48.964;9.406;2022-12-29T08:52:18;11.10;99.90
13344;DHT22;6741;48.964;9.406;2022-12-29T08:54:45;11.10;99.90
13344;DHT22;6741;48.964;9.406;2022-12-29T08:57:13;11.10;99.90
13344;DHT22;6741;48.964;9.406;2022-12-29T08:59:40;11.10;99.90
13344;DHT22;6741;48.964;9.406;2022-12-29T09:02:10;11.10;99.90
13344;DHT22;6741;48.964;9.406;2022-12-29T09:04:37;11.20;99.90
13344;DHT22;6741;48.964;9.406;2022-12-29T09:07:04;11.30;99.90
13344;DHT22;6741;48.964;9.406;2022-12-29T09:09:31;11.40;99.90
13344;DHT22;6741;48.964;9.406;2022-12-29T09:11:58;11.30;99.90
13344;DHT22;6741;48.964;9.406;2022-12-29T09:14:27;11.40;99.90
13344;DHT22;6741;48.964;9.406;2022-12-29T09:16:55;11.40;99.90
13344;DHT22;6741;48.964;9.406;2022-12-29T09:19:39;11.40;99.90
13344;DHT22;6741;48.964;9.406;2022-12-29T09:22:06;11.50;99.90
13344;DHT22;6741;48.964;9.406;2022-12-29T09:24:33;11.40;99.90
13344;DHT22;6741;48.964;9.406;2022-12-29T09:27:00;11.50;99.90
13344;DHT22;6741;48.964;9.406;2022-12-29T09:29:28;11.60;99.90
13344;DHT22;6741;48.964;9.406;2022-12-29T09:31:55;11.60;99.90
13344;DHT22;6741;48.964;9.406;2022-12-29T09:34:22;11.80;99.90
13344;DHT22;6741;48.964;9.406;2022-12-29T09:36:49;11.80;99.90
13344;DHT22;6741;48.964;9.406;2022-12-29T09:39:16;11.80;99.90
13344;DHT22;6741;48.964;9.406;2022-12-29T09:41:49;11.80;99.90
13344;DHT22;6741;48.964;9.406;2022-12-29T09:44:20;11.80;99.90
13344;DHT22;6741;48.964;9.406;2022-12-29T09:46:51;11.80;99.90
13344;DHT22;6741;48.964;9.406;2022-12-29T09:49:25;11.80;99.90
13344;DHT22;6741;48.964;9.406;2022-12-29T09:51:55;11.90;99.90
13344;DHT22;6741;48.964;9.406;2022-12-29T09:54:46;11.90;99.90
13344;DHT22;6741;48.964;9.406;2022-12-29T09:57:20;12.00;99.90
13344;DHT22;6741;48.964;9.406;2022-12-29T09:59:51;12.00;99.90
13344;DHT22;6741;48.964;9.406;2022-12-29T10:02:36;12.10;99.90
13344;DHT22;6741;48.964;9.406;2022-12-29T10:05:15;12.20;99.90
13344;DHT22;6741;48.964;9.406;2022-12-29T10:07:49;12.30;99.90
13344;DHT22;6741;48.964;9.406;2022-12-29T10:10:29;12.30;99.90
13344;DHT22;6741;48.964;9.406;2022-12-29T10:13:05;12.30;99.90
13344;DHT22;6741;48.964;9.406;2022-12-29T10:15:40;12.30;99.90
13344;DHT22;6741;48.964;9.406;2022-12-29T10:18:20;12.20;99.90
13344;DHT22;6741;48.964;9.406;2022-12-29T10:20:53;12.20;99.90
13344;DHT22;6741;48.964;9.406;2022-12-29T10:23:26;12.10;99.90
13344;DHT22;6741;48.964;9.406;2022-12-29T10:25:55;12.10;99.90
13344;DHT22;6741;48.964;9.406;2022-12-29T10:28:30;12.10;99.90
13344;DHT22;6741;48.964;9.406;2022-12-29T10:31:01;12.00;99.90
13344;DHT22;6741;48.964;9.406;2022-12-29T10:33:36;12.00;99.90
13344;DHT22;6741;48.964;9.406;2022-12-29T10:36:12;12.00;99.90
13344;DHT22;6741;48.964;9.406;2022-12-29T10:38:45;12.10;99.90
13344;DHT22;6741;48.964;9.406;2022-12-29T10:41:18;12.00;99.90
13344;DHT22;6741;48.964;9.406;2022-12-29T10:43:49;12.00;99.90
13344;DHT22;6741;48.964;9.406;2022-12-29T10:46:20;12.00;99.90
13344;DHT22;6741;48.964;9.406;2022-12-29T10:48:49;12.00;99.90
13344;DHT22;6741;48.964;9.406;2022-12-29T10:51:21;11.90;99.90
13344;DHT22;6741;48.964;9.406;2022-12-29T10:53:52;12.10;99.90
13344;DHT22;6741;48.964;9.406;2022-12-29T10:56:28;12.10;99.90
13344;DHT22;6741;48.964;9.406;2022-12-29T10:58:59;12.20;99.90
13344;DHT22;6741;48.964;9.406;2022-12-29T11:01:46;12.20;99.90
13344;DHT22;6741;48.964;9.406;2022-12-29T11:04:27;12.20;99.90
13344;DHT22;6741;48.964;9.406;2022-12-29T11:06:55;12.30;99.90
13344;DHT22;6741;48.964;9.406;2022-12-29T11:09:26;12.30;99.90
13344;DHT22;6741;48.964;9.406;2022-12-29T11:11:54;12.30;99.90
13344;DHT22;6741;48.964;9.406;2022-12-29T11:14:27;13.00;99.90
13344;DHT22;6741;48.964;9.406;2022-12-29T11:16:59;13.30;99.90
13344;DHT22;6741;48.964;9.406;2022-12-29T11:19:29;13.00;99.90
13344;DHT22;6741;48.964;9.406;2022-12-29T11:22:13;12.80;99.90
13344;DHT22;6741;48.964;9.406;2022-12-29T11:24:44;12.80;99.90
13344;DHT22;6741;48.964;9.406;2022-12-29T11:27:15;12.70;99.90
13344;DHT22;6741;48.964;9.406;2022-12-29T11:29:44;12.70;99.90
13344;DHT22;6741;48.964;9.406;2022-12-29T11:32:12;12.80;99.90
13344;DHT22;6741;48.964;9.406;2022-12-29T11:34:41;12.70;99.90
13344;DHT22;6741;48.964;9.406;2022-12-29T11:37:12;12.70;99.90
13344;DHT22;6741;48.964;9.406;2022-12-29T11:39:43;12.70;99.90
13344;DHT22;6741;48.964;9.406;2022-12-29T11:42:15;12.70;99.90
13344;DHT22;6741;48.964;9.406;2022-12-29T11:44:44;12.80;99.90
13344;DHT22;6741;48.964;9.406;2022-12-29T11:47:23;12.80;99.90
13344;DHT22;6741;48.964;9.406;2022-12-29T11:49:55;12.80;99.90
13344;DHT22;6741;48.964;9.406;2022-12-29T11:52:24;12.70;99.90
13344;DHT22;6741;48.964;9.406;2022-12-29T11:54:53;12.70;99.90
13344;DHT22;6741;48.964;9.406;2022-12-29T11:57:22;12.60;99.90
13344;DHT22;6741;48.964;9.406;2022-12-29T11:59:50;12.50;99.90
13344;DHT22;6741;48.964;9.406;2022-12-29T12:02:33;12.60;99.90
13344;DHT22;6741;48.964;9.406;2022-12-29T12:05:09;12.70;99.90
13344;DHT22;6741;48.964;9.406;2022-12-29T12:07:40;12.60;99.90
13344;DHT22;6741;48.964;9.406;2022-12-29T12:10:23;12.50;99.90
13344;DHT22;6741;48.964;9.406;2022-12-29T12:12:59;12.50;99.90
13344;DHT22;6741;48.964;9.406;2022-12-29T12:15:31;12.50;99.90
13344;DHT22;6741;48.964;9.406;2022-12-29T12:18:08;12.50;99.90
13344;DHT22;6741;48.964;9.406;2022-12-29T12:20:46;12.50;99.90
13344;DHT22;6741;48.964;9.406;2022-12-29T12:23:25;12.50;99.90
13344;DHT22;6741;48.964;9.406;2022-12-29T12:25:59;12.40;99.90
13344;DHT22;6741;48.964;9.406;2022-12-29T12:28:34;12.20;99.90
13344;DHT22;6741;48.964;9.406;2022-12-29T12:31:10;12.00;99.90
13344;DHT22;6741;48.964;9.406;2022-12-29T12:33:44;11.90;99.90
13344;DHT22;6741;48.964;9.406;2022-12-29T12:39:26;11.60;99.90
13344;DHT22;6741;48.964;9.406;2022-12-29T12:42:04;11.70;99.90
13344;DHT22;6741;48.964;9.406;2022-12-29T12:44:38;11.90;99.90
13344;DHT22;6741;48.964;9.406;2022-12-29T12:50:16;11.80;99.90
13344;DHT22;6741;48.964;9.406;2022-12-29T12:53:01;11.80;99.90
13344;DHT22;6741;48.964;9.406;2022-12-29T12:55:40;11.80;99.90
13344;DHT22;6741;48.964;9.406;2022-12-29T12:58:18;11.70;99.90
13344;DHT22;6741;48.964;9.406;2022-12-29T13:00:54;11.80;99.90
13344;DHT22;6741;48.964;9.406;2022-12-29T13:03:35;11.80;99.90
13344;DHT22;6741;48.964;9.406;2022-12-29T13:06:16;11.90;99.90
13344;DHT22;6741;48.964;9.406;2022-12-29T13:09:12;12.00;99.90
13344;DHT22;6741;48.964;9.406;2022-12-29T13:11:55;12.00;99.90
13344;DHT22;6741;48.964;9.406;2022-12-29T13:14:39;12.00;99.90
13344;DHT22;6741;48.964;9.406;2022-12-29T13:17:13;11.90;99.90
13344;DHT22;6741;48.964;9.406;2022-12-29T13:19:48;12.00;99.90
13344;DHT22;6741;48.964;9.406;2022-12-29T13:22:21;12.00;99.90
13344;DHT22;6741;48.964;9.406;2022-12-29T13:25:03;12.00;99.90
13344;DHT22;6741;48.964;9.406;2022-12-29T13:27:36;12.00;99.90
13344;DHT22;6741;48.964;9.406;2022-12-29T13:30:10;12.00;99.90
13344;DHT22;6741;48.964;9.406;2022-12-29T13:32:52;12.00;99.90
13344;DHT22;6741;48.964;9.406;2022-12-29T13:35:32;12.10;99.90
13344;DHT22;6741;48.964;9.406;2022-12-29T13:38:05;12.10;99.90
13344;DHT22;6741;48.964;9.406;2022-12-29T13:40:40;12.10;99.90
13344;DHT22;6741;48.964;9.406;2022-12-29T13:43:09;12.10;99.90
13344;DHT22;6741;48.964;9.406;2022-12-29T13:45:37;12.10;99.90
13344;DHT22;6741;48.964;9.406;2022-12-29T13:48:13;12.00;99.90
13344;DHT22;6741;48.964;9.406;2022-12-29T13:50:45;12.00;99.90
13344;DHT22;6741;48.964;9.406;2022-12-29T13:53:18;12.00;99.90
13344;DHT22;6741;48.964;9.406;2022-12-29T13:55:51;12.00;99.90
13344;DHT22;6741;48.964;9.406;2022-12-29T13:58:27;12.00;99.90
13344;DHT22;6741;48.964;9.406;2022-12-29T14:01:03;11.90;99.90
13344;DHT22;6741;48.964;9.406;2022-12-29T14:03:44;11.80;99.90
13344;DHT22;6741;48.964;9.406;2022-12-29T14:06:18;11.80;99.90
13344;DHT22;6741;48.964;9.406;2022-12-29T14:08:46;11.80;99.90
13344;DHT22;6741;48.964;9.406;2022-12-29T14:11:15;11.70;99.90
13344;DHT22;6741;48.964;9.406;2022-12-29T14:13:46;11.80;99.90
13344;DHT22;6741;48.964;9.406;2022-12-29T14:16:28;11.80;99.90
13344;DHT22;6741;48.964;9.406;2022-12-29T14:19:03;11.80;99.90
13344;DHT22;6741;48.964;9.406;2022-12-29T14:21:31;11.70;99.90
13344;DHT22;6741;48.964;9.406;2022-12-29T14:24:27;11.70;99.90
13344;DHT22;6741;48.964;9.406;2022-12-29T14:26:54;11.60;99.90
13344;DHT22;6741;48.964;9.406;2022-12-29T14:29:45;11.60;99.90
13344;DHT22;6741;48.964;9.406;2022-12-29T14:32:37;11.60;99.90
13344;DHT22;6741;48.964;9.406;2022-12-29T14:35:38;11.60;99.90
13344;DHT22;6741;48.964;9.406;2022-12-29T14:38:12;11.50;99.90
13344;DHT22;6741;48.964;9.406;2022-12-29T14:40:41;11.60;99.90
13344;DHT22;6741;48.964;9.406;2022-12-29T14:43:13;11.50;99.90
13344;DHT22;6741;48.964;9.406;2022-12-29T14:45:42;11.40;99.90
13344;DHT22;6741;48.964;9.406;2022-12-29T14:48:27;11.40;99.90
13344;DHT22;6741;48.964;9.406;2022-12-29T14:50:55;11.40;99.90
13344;DHT22;6741;48.964;9.406;2022-12-29T14:53:44;11.40;99.90
13344;DHT22;6741;48.964;9.406;2022-12-29T14:56:13;11.40;99.90
13344;DHT22;6741;48.964;9.406;2022-12-29T14:58:46;11.40;99.90
13344;DHT22;6741;48.964;9.406;2022-12-29T15:01:24;11.40;99.90
13344;DHT22;6741;48.964;9.406;2022-12-29T15:03:54;11.30;99.90
13344;DHT22;6741;48.964;9.406;2022-12-29T15:06:24;11.30;99.90
13344;DHT22;6741;48.964;9.406;2022-12-29T15:08:55;11.30;99.90
13344;DHT22;6741;48.964;9.406;2022-12-29T15:11:41;11.30;99.90
13344;DHT22;6741;48.964;9.406;2022-12-29T15:14:30;11.30;99.90
13344;DHT22;6741;48.964;9.406;2022-12-29T15:16:59;11.30;99.90
13344;DHT22;6741;48.964;9.406;2022-12-29T15:19:27;11.30;99.90
13344;DHT22;6741;48.964;9.406;2022-12-29T15:21:55;11.30;99.90
13344;DHT22;6741;48.964;9.406;2022-12-29T15:24:23;11.20;99.90
13344;DHT22;6741;48.964;9.406;2022-12-29T15:26:51;11.20;99.90
13344;DHT22;6741;48.964;9.406;2022-12-29T15:29:32;11.20;99.90
13344;DHT22;6741;48.964;9.406;2022-12-29T15:32:15;11.20;99.90
13344;DHT22;6741;48.964;9.406;2022-12-29T15:34:43;11.20;99.90
13344;DHT22;6741;48.964;9.406;2022-12-29T15:37:20;11.20;99.90
13344;DHT22;6741;48.964;9.406;2022-12-29T15:39:48;11.20;99.90
13344;DHT22;6741;48.964;9.406;2022-12-29T15:42:33;11.20;99.90
13344;DHT22;6741;48.964;9.406;2022-12-29T15:45:06;11.20;99.90
13344;DHT22;6741;48.964;9.406;2022-12-29T15:47:35;11.20;99.90
13344;DHT22;6741;48.964;9.406;2022-12-29T15:50:05;11.20;99.90
13344;DHT22;6741;48.964;9.406;2022-12-29T15:52:33;10.70;99.90
13344;DHT22;6741;48.964;9.406;2022-12-29T15:55:01;9.90;99.90
13344;DHT22;6741;48.964;9.406;2022-12-29T15:57:30;9.50;99.90
13344;DHT22;6741;48.964;9.406;2022-12-29T15:59:58;9.30;99.90
13344;DHT22;6741;48.964;9.406;2022-12-29T16:02:27;9.20;99.90
13344;DHT22;6741;48.964;9.406;2022-12-29T16:04:55;9.10;99.90
13344;DHT22;6741;48.964;9.406;2022-12-29T16:07:25;9.00;99.90
13344;DHT22;6741;48.964;9.406;2022-12-29T16:09:55;9.00;99.90
13344;DHT22;6741;48.964;9.406;2022-12-29T16:12:24;9.00;99.90
13344;DHT22;6741;48.964;9.406;2022-12-29T16:14:55;8.90;99.90
13344;DHT22;6741;48.964;9.406;2022-12-29T16:17:25;8.90;99.90
13344;DHT22;6741;48.964;9.406;2022-12-29T16:19:56;8.90;99.90
13344;DHT22;6741;48.964;9.406;2022-12-29T16:22:29;8.90;99.90
13344;DHT22;6741;48.964;9.406;2022-12-29T16:24:59;8.90;99.90